Time;durP1;ratioP1;P1;durP2;ratioP2;P2;SDS_P1;SDS_P2;PMS_P1;PMS_P2;Temp;Humidity;BMP_temperature;BMP_pressure;BME280_temperature;BME280_humidity;BME280_pressure;Samples;Min_cycle;Max_cycle;Signal;HPM_P1;HPM_P2
2022/10/31 00:00:47;;;;;;;46.90;31.63;;;11.00;99.90;;;;;;2072223;28;20029;-76
2022/10/31 00:01:47;;;;;;;48.20;33.00;;;11.00;99.90;;;;;;2072350;28;20606;-75
2022/10/31 00:02:48;;;;;;;44.38;31.00;;;11.00;99.90;;;;;;2072402;28;20105;-74
2022/10/31 00:03:49;;;;;;;46.95;32.17;;;10.90;99.90;;;;;;2072175;28;20109;-75
2022/10/31 00:04:50;;;;;;;46.08;32.20;;;10.90;99.90;;;;;;2072797;28;20022;-76
2022/10/31 00:05:50;;;;;;;51.22;32.22;;;10.90;99.90;;;;;;2071700;28;20057;-75
2022/10/31 00:06:51;;;;;;;45.33;31.10;;;10.90;99.90;;;;;;2064530;28;20080;-75
2022/10/31 00:07:53;;;;;;;46.35;32.50;;;10.90;99.90;;;;;;2064504;28;20117;-75
2022/10/31 00:08:56;;;;;;;44.67;31.45;;;10.90;99.90;;;;;;2065033;28;20034;-74
2022/10/31 00:09:57;;;;;;;43.90;30.90;;;10.90;99.90;;;;;;2065085;28;20133;-75
2022/10/31 00:10:57;;;;;;;45.70;32.15;;;10.90;99.90;;;;;;2064922;28;20018;-75
2022/10/31 00:11:58;;;;;;;45.65;31.88;;;10.90;99.90;;;;;;2072664;28;20029;-76
2022/10/31 00:12:59;;;;;;;47.05;32.35;;;10.90;99.90;;;;;;2072739;28;20026;-76
2022/10/31 00:13:59;;;;;;;43.90;31.50;;;10.80;99.90;;;;;;2073228;28;20037;-75
2022/10/31 00:15:00;;;;;;;46.67;32.08;;;10.80;99.90;;;;;;2073298;28;20117;-76
2022/10/31 00:16:01;;;;;;;46.53;31.75;;;10.80;99.90;;;;;;2064118;28;20031;-75
2022/10/31 00:17:02;;;;;;;47.05;32.13;;;10.80;99.90;;;;;;2055575;28;20110;-75
2022/10/31 00:18:04;;;;;;;49.88;31.60;;;10.80;99.90;;;;;;2071639;28;20030;-75
2022/10/31 00:19:06;;;;;;;49.00;32.67;;;10.80;99.90;;;;;;2072346;28;20030;-76
2022/10/31 00:20:07;;;;;;;46.10;31.98;;;10.80;99.90;;;;;;2071688;28;20492;-74
2022/10/31 00:21:08;;;;;;;48.15;31.83;;;10.80;99.90;;;;;;2063264;28;20112;-75
2022/10/31 00:22:09;;;;;;;46.17;31.02;;;10.80;99.90;;;;;;2071664;28;20041;-75
2022/10/31 00:23:10;;;;;;;46.65;32.00;;;10.80;99.90;;;;;;2072623;28;20041;-75
2022/10/31 00:24:11;;;;;;;46.30;31.00;;;10.80;99.90;;;;;;2071687;28;20120;-75
2022/10/31 00:25:12;;;;;;;47.83;31.17;;;10.80;99.90;;;;;;2071573;28;20065;-75
2022/10/31 00:26:13;;;;;;;45.95;31.88;;;10.80;99.90;;;;;;2072139;28;20049;-75
2022/10/31 00:27:14;;;;;;;45.58;31.40;;;10.80;99.90;;;;;;2078747;28;20052;-75
2022/10/31 00:28:14;;;;;;;45.47;30.70;;;10.80;99.90;;;;;;2071517;28;20129;-75
2022/10/31 00:29:15;;;;;;;41.65;29.88;;;10.80;99.90;;;;;;2063278;28;20026;-76
2022/10/31 00:30:16;;;;;;;44.40;30.33;;;10.80;99.90;;;;;;2072493;28;20026;-76
2022/10/31 00:31:17;;;;;;;48.15;31.45;;;10.80;99.90;;;;;;2081177;28;20048;-75
2022/10/31 00:32:18;;;;;;;46.20;31.63;;;10.80;99.90;;;;;;2073337;28;20080;-75
2022/10/31 00:33:19;;;;;;;50.47;32.30;;;10.80;99.90;;;;;;2073588;28;20028;-75
2022/10/31 00:34:20;;;;;;;47.15;31.30;;;10.80;99.90;;;;;;2081563;28;20034;-75
2022/10/31 00:35:20;;;;;;;43.80;31.23;;;10.80;99.90;;;;;;2082222;28;20040;-75
2022/10/31 00:36:21;;;;;;;48.05;31.50;;;10.80;99.90;;;;;;2087723;28;20029;-75
2022/10/31 00:37:21;;;;;;;45.88;31.13;;;10.80;99.90;;;;;;2081263;28;20048;-75
2022/10/31 00:38:22;;;;;;;43.15;30.15;;;10.80;99.90;;;;;;2081037;28;20073;-74
2022/10/31 00:39:23;;;;;;;43.63;29.67;;;10.80;99.90;;;;;;2079931;28;20022;-75
2022/10/31 00:40:23;;;;;;;44.05;29.20;;;10.80;99.90;;;;;;2076701;28;20111;-75
2022/10/31 00:41:26;;;;;;;39.95;27.92;;;10.80;99.90;;;;;;2073862;28;20021;-75
2022/10/31 00:42:26;;;;;;;44.13;29.48;;;10.80;99.90;;;;;;2057727;28;20043;-75
2022/10/31 00:43:27;;;;;;;40.90;28.90;;;10.80;99.90;;;;;;2057577;28;20030;-75
2022/10/31 00:44:28;;;;;;;41.53;29.25;;;10.80;99.90;;;;;;2065348;28;20145;-75
2022/10/31 00:45:29;;;;;;;41.95;28.33;;;10.80;99.90;;;;;;2081519;28;20021;-74
2022/10/31 00:46:29;;;;;;;42.65;29.05;;;10.80;99.90;;;;;;2073271;28;20064;-75
2022/10/31 00:47:30;;;;;;;40.33;28.48;;;10.80;99.90;;;;;;2073318;28;20084;-74
2022/10/31 00:48:31;;;;;;;42.70;28.85;;;10.80;99.90;;;;;;2081141;28;20422;-75
2022/10/31 00:49:31;;;;;;;42.08;28.63;;;10.80;99.90;;;;;;2080987;28;20026;-75
2022/10/31 00:50:32;;;;;;;41.33;28.45;;;10.80;99.90;;;;;;2064859;28;20031;-75
2022/10/31 00:51:33;;;;;;;43.83;29.05;;;10.80;99.90;;;;;;2064612;28;20049;-75
2022/10/31 00:52:34;;;;;;;42.33;28.52;;;10.70;99.90;;;;;;2073057;28;20026;-75
2022/10/31 00:53:36;;;;;;;39.03;28.17;;;10.70;99.90;;;;;;2064694;28;20117;-76
2022/10/31 00:54:37;;;;;;;38.97;27.90;;;10.80;99.90;;;;;;2056808;28;20039;-73
2022/10/31 00:55:37;;;;;;;41.30;27.92;;;10.70;99.90;;;;;;2072899;28;20096;-74
2022/10/31 00:56:38;;;;;;;41.42;28.40;;;10.70;99.90;;;;;;2080982;28;20639;-73
2022/10/31 00:57:39;;;;;;;42.10;29.13;;;10.70;99.90;;;;;;2064615;28;20030;-75
2022/10/31 00:58:39;;;;;;;42.10;28.55;;;10.70;99.90;;;;;;2073277;28;20559;-75
2022/10/31 00:59:41;;;;;;;37.42;27.42;;;10.70;99.90;;;;;;2073295;28;20026;-75
2022/10/31 01:00:41;;;;;;;40.72;28.08;;;10.70;99.90;;;;;;2073574;28;20472;-74
2022/10/31 01:01:42;;;;;;;39.80;28.05;;;10.70;99.90;;;;;;2081291;28;20029;-74
2022/10/31 01:02:43;;;;;;;42.50;28.95;;;10.70;99.90;;;;;;2065074;28;20026;-74
2022/10/31 01:03:43;;;;;;;41.05;28.92;;;10.70;99.90;;;;;;2065026;28;20149;-74
2022/10/31 01:04:46;;;;;;;39.53;27.75;;;10.70;99.90;;;;;;2073440;28;20037;-75
2022/10/31 01:06:03;;;;;;;39.53;28.23;;;10.70;99.90;;;;;;2065360;28;20109;-75
2022/10/31 01:07:06;;;;;;;40.78;28.08;;;10.70;99.90;;;;;;2068148;28;20042;-75
2022/10/31 01:08:07;;;;;;;40.78;28.55;;;10.70;99.90;;;;;;2065141;28;20472;-74
2022/10/31 01:09:08;;;;;;;39.33;27.95;;;10.70;99.90;;;;;;2072849;28;20032;-74
2022/10/31 01:10:10;;;;;;;40.72;28.13;;;10.70;99.90;;;;;;2073359;28;20029;-74
2022/10/31 01:11:13;;;;;;;41.17;27.98;;;10.70;99.90;;;;;;2064669;28;20030;-74
2022/10/31 01:12:15;;;;;;;41.03;27.98;;;10.70;99.90;;;;;;2059126;28;20066;-74
2022/10/31 01:13:15;;;;;;;42.60;28.67;;;10.70;99.90;;;;;;2075505;28;20022;-75
2022/10/31 01:14:16;;;;;;;40.53;27.77;;;10.70;99.90;;;;;;2074603;28;20026;-74
2022/10/31 01:15:21;;;;;;;42.70;28.65;;;10.60;99.90;;;;;;2074823;28;20059;-74
2022/10/31 01:16:24;;;;;;;40.67;27.17;;;10.60;99.90;;;;;;2066561;28;20026;-74
2022/10/31 01:17:25;;;;;;;39.60;28.70;;;10.60;99.90;;;;;;2068221;28;20037;-74
2022/10/31 01:18:27;;;;;;;41.33;28.38;;;10.60;99.90;;;;;;2075645;28;20129;-74
2022/10/31 01:19:27;;;;;;;40.67;27.50;;;10.60;99.90;;;;;;2075903;28;20615;-74
2022/10/31 01:20:31;;;;;;;40.67;28.63;;;10.60;99.90;;;;;;2075359;28;20084;-73
2022/10/31 01:21:32;;;;;;;40.13;27.33;;;10.60;99.90;;;;;;2066711;28;20069;-73
2022/10/31 01:22:33;;;;;;;39.47;27.58;;;10.60;99.90;;;;;;2074778;28;20048;-73
2022/10/31 01:23:35;;;;;;;40.65;28.88;;;10.50;99.90;;;;;;2075213;28;20638;-74
2022/10/31 01:24:36;;;;;;;40.88;28.05;;;10.60;99.90;;;;;;2067424;28;20034;-74
2022/10/31 01:25:36;;;;;;;42.30;29.48;;;10.50;99.90;;;;;;2059670;28;20043;-74
2022/10/31 01:26:37;;;;;;;42.40;29.27;;;10.50;99.90;;;;;;2067703;28;20030;-75
2022/10/31 01:27:38;;;;;;;45.10;29.73;;;10.50;99.90;;;;;;2076774;28;20053;-75
2022/10/31 01:28:48;;;;;;;43.95;29.90;;;10.50;99.90;;;;;;2076901;28;20040;-74
2022/10/31 01:29:49;;;;;;;45.25;31.02;;;10.50;99.90;;;;;;2076074;28;20072;-73
2022/10/31 01:30:50;;;;;;;42.83;30.05;;;10.50;99.90;;;;;;2075448;28;20519;-73
2022/10/31 01:31:50;;;;;;;44.20;30.55;;;10.50;99.90;;;;;;2067319;28;20034;-74
2022/10/31 01:32:51;;;;;;;43.83;30.35;;;10.50;99.90;;;;;;2067106;28;20027;-74
2022/10/31 01:33:53;;;;;;;44.08;30.67;;;10.50;99.90;;;;;;2073143;28;20491;-73
2022/10/31 01:34:53;;;;;;;45.42;30.52;;;10.50;99.90;;;;;;2073380;28;20054;-74
2022/10/31 01:35:54;;;;;;;48.60;32.30;;;10.50;99.90;;;;;;2073458;28;20026;-74
2022/10/31 01:36:55;;;;;;;43.53;31.05;;;10.50;99.90;;;;;;2072495;28;20084;-74
2022/10/31 01:37:56;;;;;;;44.92;31.13;;;10.50;99.90;;;;;;2064166;28;20022;-74
2022/10/31 01:39:00;;;;;;;43.92;30.10;;;10.40;99.90;;;;;;2072431;28;20034;-73
2022/10/31 01:40:01;;;;;;;44.10;30.67;;;10.40;99.90;;;;;;2073006;28;20033;-74
2022/10/31 01:41:01;;;;;;;47.80;31.20;;;10.40;99.90;;;;;;2064448;28;20034;-74
2022/10/31 01:42:02;;;;;;;47.75;33.28;;;10.40;99.90;;;;;;2059876;28;20034;-74
2022/10/31 01:43:03;;;;;;;45.83;31.27;;;10.30;99.90;;;;;;2068397;28;20034;-74
2022/10/31 01:44:15;;;;;;;46.05;30.33;;;10.40;99.90;;;;;;2077246;28;20037;-74
2022/10/31 01:45:17;;;;;;;47.38;32.05;;;10.40;99.90;;;;;;2070238;28;20077;-74
2022/10/31 01:46:27;;;;;;;47.33;32.28;;;10.40;99.90;;;;;;2056824;28;20369;-74
2022/10/31 01:47:35;;;;;;;45.75;31.92;;;10.40;99.90;;;;;;2058476;28;20576;-74
2022/10/31 01:48:36;;;;;;;48.63;32.83;;;10.40;99.90;;;;;;2072832;28;20026;-74
2022/10/31 01:49:41;;;;;;;47.15;31.85;;;10.30;99.90;;;;;;2073250;28;20080;-74
2022/10/31 01:50:45;;;;;;;46.40;31.65;;;10.30;99.90;;;;;;2073182;28;20111;-74
2022/10/31 01:51:56;;;;;;;46.25;31.30;;;10.30;99.90;;;;;;2080924;28;20033;-74
2022/10/31 01:52:59;;;;;;;44.80;30.75;;;10.30;99.90;;;;;;2080356;28;20301;-74
2022/10/31 01:54:08;;;;;;;42.25;29.95;;;10.30;99.90;;;;;;2073385;28;20030;-74
2022/10/31 01:55:18;;;;;;;46.72;31.35;;;10.30;99.90;;;;;;2073032;28;20037;-74
2022/10/31 01:56:19;;;;;;;44.00;30.50;;;10.30;99.90;;;;;;2072321;28;20030;-74
2022/10/31 01:57:21;;;;;;;44.75;30.27;;;10.30;99.90;;;;;;2055813;28;20034;-74
2022/10/31 01:58:29;;;;;;;44.92;30.60;;;10.30;99.90;;;;;;2065373;28;20026;-74
2022/10/31 01:59:34;;;;;;;45.33;31.48;;;10.30;99.90;;;;;;2073254;28;20033;-74
2022/10/31 02:00:35;;;;;;;47.70;32.03;;;10.30;99.90;;;;;;2073212;28;20033;-74
2022/10/31 02:01:37;;;;;;;43.25;30.30;;;10.20;99.90;;;;;;2073028;28;20109;-75
2022/10/31 02:02:38;;;;;;;45.97;31.65;;;10.20;99.90;;;;;;2072289;28;20145;-74
2022/10/31 02:03:39;;;;;;;47.15;31.73;;;10.20;99.90;;;;;;2064166;28;20092;-74
2022/10/31 02:04:40;;;;;;;44.08;30.27;;;10.20;99.90;;;;;;2072119;28;20030;-75
2022/10/31 02:05:43;;;;;;;44.58;30.88;;;10.20;99.90;;;;;;2073054;28;20022;-74
2022/10/31 02:06:51;;;;;;;43.30;30.33;;;10.20;99.90;;;;;;2080219;28;20037;-74
2022/10/31 02:08:01;;;;;;;46.33;31.67;;;10.20;99.90;;;;;;2079574;28;20649;-75
2022/10/31 02:09:05;;;;;;;47.40;30.75;;;10.20;99.90;;;;;;2073276;28;20030;-75
2022/10/31 02:10:06;;;;;;;46.10;30.58;;;10.20;99.90;;;;;;2074482;28;20037;-75
2022/10/31 02:11:08;;;;;;;46.00;30.42;;;10.20;99.90;;;;;;2065458;28;20129;-74
2022/10/31 02:12:11;;;;;;;45.33;30.08;;;10.20;99.90;;;;;;2064723;28;20087;-74
2022/10/31 02:13:13;;;;;;;46.72;31.27;;;10.20;99.90;;;;;;2077091;28;20388;-75
2022/10/31 02:14:22;;;;;;;50.80;34.08;;;10.20;99.90;;;;;;2073138;28;20030;-75
2022/10/31 02:15:25;;;;;;;50.28;33.30;;;10.20;99.90;;;;;;2072321;28;20030;-75
2022/10/31 02:16:27;;;;;;;46.38;31.30;;;10.20;99.90;;;;;;2072691;28;20033;-75
2022/10/31 02:17:30;;;;;;;45.58;31.20;;;10.20;99.90;;;;;;2071984;28;20030;-75
2022/10/31 02:18:32;;;;;;;47.10;31.27;;;10.20;99.90;;;;;;2064198;28;20031;-74
2022/10/31 02:20:03;;;;;;;44.97;30.92;;;10.20;99.90;;;;;;2064705;28;20122;-75
2022/10/31 02:21:24;;;;;;;43.88;30.35;;;10.10;99.90;;;;;;2061968;28;20041;-75
2022/10/31 02:22:38;;;;;;;44.35;29.25;;;10.10;99.90;;;;;;2073107;28;20033;-74
2022/10/31 02:23:54;;;;;;;43.35;29.63;;;10.10;99.90;;;;;;2073112;28;20514;-76
2022/10/31 02:25:03;;;;;;;45.50;30.05;;;10.10;99.90;;;;;;2080319;28;20045;-75
2022/10/31 02:26:09;;;;;;;44.72;29.67;;;10.10;99.90;;;;;;2079099;28;20232;-75
2022/10/31 02:27:21;;;;;;;54.40;34.20;;;10.10;99.90;;;;;;2064956;28;20049;-74
2022/10/31 02:28:50;;;;;;;49.40;31.92;;;10.10;99.90;;;;;;2066236;28;20042;-74
2022/10/31 02:30:12;;;;;;;47.15;32.08;;;10.10;99.90;;;;;;2068269;28;20037;-74
2022/10/31 02:31:15;;;;;;;48.13;31.70;;;10.10;99.90;;;;;;2072816;28;20084;-74
2022/10/31 02:32:27;;;;;;;44.17;30.77;;;10.10;99.90;;;;;;2080679;28;20029;-75
2022/10/31 02:33:43;;;;;;;42.17;28.83;;;10.10;99.90;;;;;;2072369;28;20080;-75
2022/10/31 02:35:03;;;;;;;40.80;28.08;;;10.10;99.90;;;;;;2066104;28;20030;-75
2022/10/31 02:36:16;;;;;;;44.53;29.38;;;10.00;99.90;;;;;;2066841;28;20441;-75
2022/10/31 02:37:40;;;;;;;44.25;30.17;;;10.00;99.90;;;;;;2065131;28;20042;-75
2022/10/31 02:38:50;;;;;;;47.85;30.05;;;10.00;99.90;;;;;;2064013;28;20062;-74
2022/10/31 02:40:19;;;;;;;44.45;29.52;;;10.00;99.90;;;;;;2060882;28;20034;-75
2022/10/31 02:41:51;;;;;;;45.70;29.52;;;10.00;99.90;;;;;;2077334;28;20030;-75
2022/10/31 02:43:26;;;;;;;41.28;28.88;;;10.00;99.90;;;;;;2078468;28;20109;-74
2022/10/31 02:44:51;;;;;;;44.42;28.98;;;10.00;99.90;;;;;;2072120;28;20022;-74
2022/10/31 02:45:57;;;;;;;41.30;29.33;;;10.00;99.90;;;;;;2067461;28;20428;-75
2022/10/31 02:51:52;;;;;;;43.10;29.75;;;10.00;99.90;;;;;;2023375;29;20052;-74
2022/10/31 02:52:53;;;;;;;55.35;34.75;;;10.00;99.90;;;;;;2018243;29;20507;-76
2022/10/31 02:53:54;;;;;;;49.20;32.20;;;10.00;99.90;;;;;;2033972;28;20087;-75
2022/10/31 02:54:55;;;;;;;47.55;32.28;;;10.00;99.90;;;;;;2063628;28;20044;-74
2022/10/31 02:56:10;;;;;;;47.60;31.45;;;10.00;99.90;;;;;;2071735;28;20030;-75
2022/10/31 02:57:13;;;;;;;48.80;32.53;;;10.00;99.90;;;;;;2073803;28;20058;-74
2022/10/31 02:58:17;;;;;;;45.05;30.10;;;10.00;99.90;;;;;;2079955;28;20055;-76
2022/10/31 02:59:19;;;;;;;47.03;30.15;;;10.00;99.90;;;;;;2079667;28;20100;-74
2022/10/31 03:00:20;;;;;;;44.08;30.55;;;10.00;99.90;;;;;;2080039;28;20526;-75
2022/10/31 03:01:45;;;;;;;44.85;30.10;;;10.00;99.90;;;;;;2079777;28;20029;-75
2022/10/31 03:03:00;;;;;;;42.53;29.30;;;10.00;99.90;;;;;;2067120;28;20034;-74
2022/10/31 03:04:10;;;;;;;44.88;30.52;;;10.00;99.90;;;;;;2072059;28;20078;-74
2022/10/31 03:05:23;;;;;;;47.58;31.33;;;10.00;99.90;;;;;;2072423;28;20386;-75
2022/10/31 03:06:35;;;;;;;44.10;30.33;;;10.00;99.90;;;;;;2063506;28;20026;-75
2022/10/31 03:08:05;;;;;;;43.50;30.50;;;10.00;99.90;;;;;;2064972;28;20027;-75
2022/10/31 03:09:24;;;;;;;45.30;29.20;;;10.00;99.90;;;;;;2072553;28;20026;-74
2022/10/31 03:10:47;;;;;;;44.97;29.67;;;9.90;99.90;;;;;;2072331;28;20030;-74
2022/10/31 03:12:01;;;;;;;43.08;28.95;;;9.90;99.90;;;;;;2080321;28;20021;-75
2022/10/31 03:13:10;;;;;;;41.33;27.85;;;9.90;99.90;;;;;;2070270;28;20587;-75
2022/10/31 03:14:20;;;;;;;40.60;28.27;;;9.90;99.90;;;;;;2064968;28;20026;-75
2022/10/31 03:15:33;;;;;;;41.10;28.05;;;9.90;99.90;;;;;;2065208;28;20050;-76
2022/10/31 03:16:47;;;;;;;40.53;28.25;;;9.80;99.90;;;;;;2064858;28;20042;-74
2022/10/31 03:17:53;;;;;;;41.58;26.90;;;9.80;99.90;;;;;;2072039;28;20068;-75
2022/10/31 03:19:04;;;;;;;40.53;27.55;;;9.80;99.90;;;;;;2064548;28;20031;-75
2022/10/31 03:20:08;;;;;;;38.45;27.33;;;9.80;99.90;;;;;;2065227;28;20027;-75
2022/10/31 03:21:16;;;;;;;42.05;28.67;;;9.80;99.90;;;;;;2071659;28;20080;-74
2022/10/31 03:22:23;;;;;;;42.38;28.48;;;9.80;99.90;;;;;;2064768;28;20073;-74
2022/10/31 03:23:25;;;;;;;39.67;27.52;;;9.80;99.90;;;;;;2072396;28;20037;-74
2022/10/31 03:24:31;;;;;;;38.95;26.83;;;9.80;99.90;;;;;;2079906;28;20041;-74
2022/10/31 03:25:35;;;;;;;40.13;28.13;;;9.80;99.90;;;;;;2071751;28;20061;-74
2022/10/31 03:26:41;;;;;;;40.42;26.90;;;9.80;99.90;;;;;;2055771;28;20027;-76
2022/10/31 03:27:45;;;;;;;42.47;28.17;;;9.80;99.90;;;;;;2064605;28;20034;-75
2022/10/31 03:28:56;;;;;;;39.47;27.33;;;9.70;99.90;;;;;;2071651;28;20044;-75
2022/10/31 03:30:00;;;;;;;40.20;27.63;;;9.70;99.90;;;;;;2064749;28;20023;-76
2022/10/31 03:31:05;;;;;;;40.03;27.38;;;9.70;99.90;;;;;;2071321;28;20561;-76
2022/10/31 03:32:41;;;;;;;37.60;25.83;;;9.70;99.90;;;;;;2071702;28;20037;-73
2022/10/31 03:33:43;;;;;;;38.25;25.35;;;9.70;99.90;;;;;;2071840;28;20018;-76
2022/10/31 03:34:45;;;;;;;39.05;26.50;;;9.70;99.90;;;;;;2072356;28;20411;-77
2022/10/31 03:35:50;;;;;;;35.95;25.88;;;9.70;99.90;;;;;;2071585;28;20045;-74
2022/10/31 03:36:55;;;;;;;39.47;26.67;;;9.70;99.90;;;;;;2063684;28;20053;-74
2022/10/31 03:37:59;;;;;;;41.67;27.90;;;9.70;99.90;;;;;;2072137;28;20607;-74
2022/10/31 03:39:05;;;;;;;46.85;28.73;;;9.70;99.90;;;;;;2079676;28;20124;-74
2022/10/31 03:40:08;;;;;;;41.30;27.75;;;9.70;99.90;;;;;;2072588;28;20026;-74
2022/10/31 03:41:18;;;;;;;39.20;27.92;;;9.70;99.90;;;;;;2079749;28;20030;-74
2022/10/31 03:42:23;;;;;;;42.22;27.60;;;9.70;99.90;;;;;;2071402;28;20101;-74
2022/10/31 03:43:30;;;;;;;39.60;27.08;;;9.60;99.90;;;;;;2064403;28;20031;-74
2022/10/31 03:44:35;;;;;;;37.17;26.20;;;9.60;99.90;;;;;;2071606;28;20073;-74
2022/10/31 03:45:43;;;;;;;39.25;26.77;;;9.60;99.90;;;;;;2071720;28;20022;-74
2022/10/31 03:46:44;;;;;;;37.75;26.70;;;9.60;99.90;;;;;;2064368;28;20065;-74
2022/10/31 03:47:45;;;;;;;38.25;25.67;;;9.70;99.90;;;;;;2063531;28;20049;-74
2022/10/31 03:48:46;;;;;;;37.05;26.08;;;9.60;99.90;;;;;;2063344;28;20070;-74
2022/10/31 03:49:46;;;;;;;39.05;26.48;;;9.60;99.90;;;;;;2071949;28;20026;-74
2022/10/31 03:51:01;;;;;;;37.75;26.77;;;9.60;99.90;;;;;;2079772;28;20392;-74
2022/10/31 03:52:10;;;;;;;38.00;26.48;;;9.60;99.90;;;;;;2070908;28;20459;-75
2022/10/31 03:53:20;;;;;;;37.88;26.85;;;9.60;99.90;;;;;;2064561;28;20034;-75
2022/10/31 03:54:44;;;;;;;40.83;26.45;;;9.60;99.90;;;;;;2064839;28;20030;-74
2022/10/31 03:56:06;;;;;;;36.13;25.23;;;9.60;99.90;;;;;;2074541;28;20408;-75
2022/10/31 03:57:45;;;;;;;38.03;26.90;;;9.50;99.90;;;;;;2071658;28;20528;-75
2022/10/31 03:58:59;;;;;;;37.33;26.00;;;9.50;99.90;;;;;;2044123;29;20059;-75
2022/10/31 04:00:04;;;;;;;39.17;26.35;;;9.50;99.90;;;;;;2065923;28;20500;-75
2022/10/31 04:01:11;;;;;;;39.97;25.98;;;9.50;99.90;;;;;;2064796;28;20030;-75
2022/10/31 04:02:20;;;;;;;41.10;27.30;;;9.50;99.90;;;;;;2064241;28;20038;-75
2022/10/31 04:03:29;;;;;;;37.50;26.17;;;9.50;99.90;;;;;;2064714;28;20039;-75
2022/10/31 04:04:34;;;;;;;39.95;26.63;;;9.50;99.90;;;;;;2071914;28;20443;-75
2022/10/31 04:05:36;;;;;;;39.95;26.42;;;9.50;99.90;;;;;;2066168;28;20436;-75
2022/10/31 04:06:38;;;;;;;37.90;25.83;;;9.50;99.90;;;;;;2066175;28;20551;-75
2022/10/31 04:07:47;;;;;;;36.15;25.15;;;9.40;99.90;;;;;;2074467;28;20125;-75
2022/10/31 04:09:00;;;;;;;38.65;25.30;;;9.50;99.90;;;;;;2073805;28;20029;-75
2022/10/31 04:10:11;;;;;;;42.35;28.58;;;9.50;99.90;;;;;;2067118;28;20062;-75
2022/10/31 04:11:13;;;;;;;39.33;27.75;;;9.50;99.90;;;;;;2066750;28;20030;-75
2022/10/31 04:12:17;;;;;;;41.08;26.75;;;9.50;99.90;;;;;;2066246;28;20077;-75
2022/10/31 04:13:37;;;;;;;40.33;27.33;;;9.50;99.90;;;;;;2066564;28;20030;-75
2022/10/31 04:14:50;;;;;;;38.28;25.38;;;9.50;99.90;;;;;;2060065;28;20089;-75
2022/10/31 04:15:54;;;;;;;36.15;25.05;;;9.50;99.90;;;;;;2050362;28;20034;-74
2022/10/31 04:16:57;;;;;;;39.03;25.80;;;9.40;99.90;;;;;;2059318;28;20057;-75
2022/10/31 04:18:06;;;;;;;36.92;25.80;;;9.40;99.90;;;;;;2073820;28;20061;-75
2022/10/31 04:19:07;;;;;;;40.17;25.98;;;9.50;99.90;;;;;;2065264;28;20037;-75
2022/10/31 04:20:08;;;;;;;38.90;25.40;;;9.40;99.90;;;;;;2057799;28;20078;-74
2022/10/31 04:21:16;;;;;;;37.50;25.92;;;9.40;99.90;;;;;;2065258;28;20037;-77
2022/10/31 04:22:17;;;;;;;35.58;25.80;;;9.50;99.90;;;;;;2065924;28;20117;-75
2022/10/31 04:23:22;;;;;;;37.58;26.42;;;9.40;99.90;;;;;;2065075;28;20045;-75
2022/10/31 04:24:24;;;;;;;36.97;25.27;;;9.40;99.90;;;;;;2057475;28;20030;-75
2022/10/31 04:25:25;;;;;;;34.60;25.27;;;9.40;99.90;;;;;;2057307;28;20608;-75
2022/10/31 04:26:28;;;;;;;36.47;25.42;;;9.40;99.90;;;;;;2065206;28;20054;-74
2022/10/31 04:27:29;;;;;;;36.60;25.33;;;9.40;99.90;;;;;;2073298;28;20045;-75
2022/10/31 04:28:30;;;;;;;40.55;26.48;;;9.40;99.90;;;;;;2073098;28;20042;-74
2022/10/31 04:29:31;;;;;;;36.53;26.17;;;9.40;99.90;;;;;;2073298;28;20072;-75
2022/10/31 04:30:32;;;;;;;35.38;24.70;;;9.40;99.90;;;;;;2056765;28;20041;-74
2022/10/31 04:31:33;;;;;;;35.20;25.08;;;9.30;99.90;;;;;;2056843;28;20804;-76
2022/10/31 04:32:33;;;;;;;44.20;28.38;;;9.30;99.90;;;;;;2073313;28;20026;-74
2022/10/31 04:33:34;;;;;;;37.50;26.17;;;9.40;99.90;;;;;;2073159;28;20033;-75
2022/10/31 04:34:36;;;;;;;37.33;25.65;;;9.40;99.90;;;;;;2072823;28;20048;-74
2022/10/31 04:35:39;;;;;;;38.50;26.15;;;9.40;99.90;;;;;;2065707;28;20035;-75
2022/10/31 04:36:40;;;;;;;38.55;26.60;;;9.40;99.90;;;;;;2065764;28;20026;-75
2022/10/31 04:37:42;;;;;;;37.45;25.92;;;9.40;99.90;;;;;;2073107;28;20033;-74
2022/10/31 04:38:42;;;;;;;37.63;27.05;;;9.30;99.90;;;;;;2064968;28;20526;-76
2022/10/31 04:39:53;;;;;;;36.15;25.60;;;9.30;99.90;;;;;;2066681;28;20026;-75
2022/10/31 04:41:14;;;;;;;;;;;9.30;99.90;;;;;;2070580;28;20038;-76
2022/10/31 04:42:30;;;;;;;38.00;24.77;;;9.30;99.90;;;;;;2065285;28;19914;-75
2022/10/31 04:43:32;;;;;;;34.50;24.35;;;9.30;99.90;;;;;;2065645;28;20022;-76
2022/10/31 04:44:34;;;;;;;38.10;25.50;;;9.30;99.90;;;;;;2073330;28;20030;-75
2022/10/31 04:45:36;;;;;;;35.30;24.40;;;9.20;99.90;;;;;;2065376;28;20085;-75
2022/10/31 04:46:37;;;;;;;37.95;25.17;;;9.20;99.90;;;;;;2057101;28;20082;-74
2022/10/31 04:47:38;;;;;;;34.30;24.38;;;9.20;99.90;;;;;;2065187;28;20027;-74
2022/10/31 04:48:40;;;;;;;37.38;25.45;;;9.20;99.90;;;;;;2065581;28;20030;-74
2022/10/31 04:49:41;;;;;;;38.30;25.25;;;9.20;99.90;;;;;;2057409;28;20833;-76
2022/10/31 04:50:44;;;;;;;35.70;24.88;;;9.20;99.90;;;;;;2057840;28;20023;-72
2022/10/31 04:51:47;;;;;;;34.03;24.70;;;9.20;99.90;;;;;;2058150;28;20560;-73
2022/10/31 04:52:48;;;;;;;35.63;25.30;;;9.20;99.90;;;;;;2057876;28;20105;-74
2022/10/31 04:53:52;;;;;;;38.97;25.67;;;9.20;99.90;;;;;;2058201;28;20049;-74
2022/10/31 04:55:13;;;;;;;36.08;25.10;;;9.20;99.90;;;;;;2065333;28;20043;-74
2022/10/31 04:56:32;;;;;;;41.88;26.42;;;9.20;99.90;;;;;;2065780;28;20030;-74
2022/10/31 04:57:44;;;;;;;35.50;25.30;;;9.20;99.90;;;;;;2064975;28;20030;-74
2022/10/31 04:58:45;;;;;;;37.05;26.20;;;9.20;99.90;;;;;;2064923;28;20026;-74
2022/10/31 04:59:46;;;;;;;36.35;25.77;;;9.20;99.90;;;;;;2064823;28;20512;-74
2022/10/31 05:00:47;;;;;;;35.53;24.40;;;9.20;99.90;;;;;;2073257;28;20113;-74
2022/10/31 05:01:48;;;;;;;37.97;25.08;;;9.20;99.90;;;;;;2064892;28;20121;-74
2022/10/31 05:02:57;;;;;;;37.25;25.27;;;9.20;99.90;;;;;;2058110;28;20035;-75
2022/10/31 05:04:00;;;;;;;36.58;25.38;;;9.20;99.90;;;;;;2065497;28;20030;-74
2022/10/31 05:05:05;;;;;;;34.17;24.58;;;9.10;99.90;;;;;;2072933;28;20026;-74
2022/10/31 05:06:07;;;;;;;34.10;24.17;;;9.10;99.90;;;;;;2064584;28;20532;-74
2022/10/31 05:07:09;;;;;;;35.75;24.75;;;9.10;99.90;;;;;;2064719;28;20053;-74
2022/10/31 05:08:10;;;;;;;33.72;24.52;;;9.10;99.90;;;;;;2072858;28;20040;-74
2022/10/31 05:09:11;;;;;;;37.45;24.42;;;9.10;99.90;;;;;;2064873;28;20053;-74
2022/10/31 05:10:14;;;;;;;36.72;25.25;;;9.00;99.90;;;;;;2056986;28;20054;-75
2022/10/31 05:11:15;;;;;;;36.75;26.00;;;9.00;99.90;;;;;;2056659;28;20034;-74
2022/10/31 05:12:18;;;;;;;36.17;24.83;;;9.10;99.90;;;;;;2057147;28;20027;-75
2022/10/31 05:13:38;;;;;;;38.30;25.10;;;9.00;99.90;;;;;;2078856;28;20058;-75
2022/10/31 05:14:47;;;;;;;36.30;25.35;;;9.10;99.90;;;;;;2073388;28;20546;-74
2022/10/31 05:16:07;;;;;;;34.85;24.70;;;9.10;99.90;;;;;;2072905;28;20539;-75
2022/10/31 05:17:42;;;;;;;35.42;24.67;;;9.00;99.90;;;;;;2073421;28;20014;-75
2022/10/31 05:19:03;;;;;;;36.67;25.02;;;9.00;99.90;;;;;;2073895;28;20465;-74
2022/10/31 05:20:12;;;;;;;36.55;24.98;;;9.00;99.90;;;;;;2073320;28;20045;-76
2022/10/31 05:21:31;;;;;;;35.20;24.50;;;9.00;99.90;;;;;;2073585;28;20492;-74
2022/10/31 05:22:41;;;;;;;36.17;24.35;;;9.00;99.90;;;;;;2072504;28;20506;-74
2022/10/31 05:23:41;;;;;;;33.58;23.77;;;9.00;99.90;;;;;;2072893;28;20029;-75
2022/10/31 05:24:43;;;;;;;37.83;25.67;;;9.00;99.90;;;;;;2064557;28;20042;-74
2022/10/31 05:25:44;;;;;;;36.13;24.70;;;8.90;99.90;;;;;;2064621;28;20098;-75
2022/10/31 05:26:46;;;;;;;35.47;24.60;;;8.90;99.90;;;;;;2072709;28;20048;-75
2022/10/31 05:27:48;;;;;;;35.47;24.30;;;8.90;99.90;;;;;;2073090;28;20072;-75
2022/10/31 05:28:49;;;;;;;36.78;24.45;;;8.90;99.90;;;;;;2065130;28;20015;-75
2022/10/31 05:29:50;;;;;;;34.58;23.80;;;8.90;99.90;;;;;;2073468;28;20030;-75
2022/10/31 05:30:51;;;;;;;35.90;24.25;;;8.90;99.90;;;;;;2065283;28;20117;-74
2022/10/31 05:31:52;;;;;;;35.50;24.45;;;8.90;99.90;;;;;;2064844;28;20029;-74
2022/10/31 05:33:12;;;;;;;34.45;24.13;;;8.80;99.90;;;;;;2073482;28;20030;-75
2022/10/31 05:34:31;;;;;;;38.08;24.25;;;8.80;99.90;;;;;;2073878;28;20030;-74
2022/10/31 05:36:01;;;;;;;33.40;23.25;;;8.80;99.90;;;;;;2073195;28;20034;-74
2022/10/31 05:37:07;;;;;;;34.47;24.63;;;8.80;99.90;;;;;;2081435;28;20504;-74
2022/10/31 05:38:07;;;;;;;33.75;24.17;;;8.80;99.90;;;;;;2073550;28;20046;-74
2022/10/31 05:39:08;;;;;;;34.63;23.80;;;8.80;99.90;;;;;;2072651;28;20021;-73
2022/10/31 05:40:15;;;;;;;33.88;23.88;;;8.80;99.90;;;;;;2064544;28;20027;-72